Time;durP1;ratioP1;P1;durP2;ratioP2;P2;SDS_P1;SDS_P2;PMS_P1;PMS_P2;Temp;Humidity;BMP_temperature;BMP_pressure;BME280_temperature;BME280_humidity;BME280_pressure;Samples;Min_cycle;Max_cycle;Signal;HPM_P1;HPM_P2
2021/07/14 00:01:58;;;;;;;68.50;47.05;;;;;;;19.62;100.00;100502.44;4945584;28;20039;-88
2021/07/14 00:04:24;;;;;;;71.18;48.33;;;;;;;19.61;100.00;100507.06;4941158;28;20055;-87
2021/07/14 00:06:50;;;;;;;73.93;48.72;;;;;;;19.63;100.00;100503.28;4944736;28;20081;-87
2021/07/14 00:09:15;;;;;;;71.10;47.92;;;;;;;19.60;100.00;100497.25;4944422;28;20482;-88
2021/07/14 00:11:44;;;;;;;73.53;50.95;;;;;;;19.60;100.00;100505.41;4945307;28;20039;-89
2021/07/14 00:22:13;;;;;;;73.57;48.55;;;;;;;19.56;100.00;100506.94;4962040;28;20073;-86
2021/07/14 00:24:39;;;;;;;70.25;48.25;;;;;;;19.54;100.00;100506.34;4960155;28;20054;-87
2021/07/14 00:27:06;;;;;;;72.78;47.72;;;;;;;19.55;100.00;100502.53;4963357;28;20054;-87
2021/07/14 00:29:37;;;;;;;69.65;47.17;;;;;;;19.53;100.00;100504.66;4960577;28;20043;-87
2021/07/14 00:32:07;;;;;;;70.80;47.22;;;;;;;19.53;100.00;100504.66;4955619;28;20063;-87
2021/07/14 00:34:33;;;;;;;70.85;49.47;;;;;;;19.50;100.00;100502.41;4945154;28;20134;-88
2021/07/14 00:36:59;;;;;;;71.68;47.67;;;;;;;19.51;100.00;100511.41;4944800;28;20055;-88
2021/07/14 00:39:24;;;;;;;73.47;48.10;;;;;;;19.49;100.00;100508.91;4945413;28;20051;-88
2021/07/14 00:41:50;;;;;;;69.47;46.75;;;;;;;19.50;100.00;100509.72;4944724;28;20110;-88
2021/07/14 00:44:15;;;;;;;73.13;49.20;;;;;;;19.49;100.00;100508.91;4943943;28;20055;-88
2021/07/14 00:46:45;;;;;;;78.28;47.53;;;;;;;19.52;100.00;100513.88;4943386;28;20090;-89
2021/07/14 00:49:10;;;;;;;72.05;47.90;;;;;;;19.48;100.00;100512.69;4944161;28;20073;-88
2021/07/14 00:51:37;;;;;;;70.97;46.88;;;;;;;19.50;100.00;100513.28;4943967;28;20071;-89
2021/07/14 00:54:03;;;;;;;68.57;46.08;;;;;;;19.52;100.00;100511.16;4945235;28;20063;-89
2021/07/14 00:56:28;;;;;;;72.78;47.42;;;;;;;19.53;100.00;100509.28;4940038;28;20062;-88
2021/07/14 00:58:56;;;;;;;69.53;47.38;;;;;;;19.49;100.00;100502.63;4943377;28;20891;-89
2021/07/14 01:01:23;;;;;;;74.43;47.85;;;;;;;19.50;100.00;100505.13;4945861;28;20051;-89
2021/07/14 01:03:58;;;;;;;73.75;48.00;;;;;;;19.51;100.00;100500.53;4943354;28;20575;-89
2021/07/14 01:06:42;;;;;;;72.30;46.50;;;;;;;19.48;100.00;100498.25;4942995;28;20055;-87
2021/07/14 01:09:11;;;;;;;79.10;49.50;;;;;;;19.41;100.00;100495.63;4943975;28;20052;-89
2021/07/14 01:11:38;;;;;;;75.45;49.65;;;;;;;19.42;100.00;100500.00;4942634;28;20234;-89
2021/07/14 01:14:25;;;;;;;79.70;48.95;;;;;;;19.42;100.00;100494.56;4943328;28;20047;-88
2021/07/14 01:17:03;;;;;;;74.25;49.47;;;;;;;19.41;100.00;100483.91;4941009;28;20154;-89
2021/07/14 01:20:02;;;;;;;75.10;49.35;;;;;;;19.38;100.00;100491.47;4938649;28;20035;-88
2021/07/14 01:22:51;;;;;;;75.68;48.35;;;;;;;19.41;100.00;100489.34;4943565;28;20043;-89
2021/07/14 01:25:56;;;;;;;76.80;48.85;;;;;;;19.37;100.00;100484.38;4942240;28;20134;-89
2021/07/14 01:28:25;;;;;;;76.28;49.58;;;;;;;19.36;100.00;100482.72;4939548;29;20047;-88
2021/07/14 01:30:52;;;;;;;;;;;;;;;19.35;100.00;100481.03;4942429;28;20081;-88
2021/07/14 01:33:22;;;;;;;80.55;49.58;;;;;;;19.33;100.00;100482.31;4943134;28;19957;-90
2021/07/14 01:35:50;;;;;;;86.47;50.65;;;;;;;19.32;100.00;100480.69;4942191;28;20687;-88
2021/07/14 01:38:19;;;;;;;82.20;50.35;;;;;;;19.33;100.00;100482.31;4942671;29;20039;-89
2021/07/14 01:40:47;;;;;;;76.22;49.78;;;;;;;19.33;100.00;100483.19;4941852;28;20081;-89
2021/07/14 01:43:13;;;;;;;82.40;49.65;;;;;;;19.37;100.00;100484.38;4941932;28;20039;-88
2021/07/14 01:45:41;;;;;;;89.10;50.15;;;;;;;19.38;100.00;100487.91;4943532;28;20047;-89
2021/07/14 01:48:10;;;;;;;78.93;51.90;;;;;;;19.40;100.00;100496.69;4940898;28;20114;-88
2021/07/14 01:50:36;;;;;;;75.72;47.78;;;;;;;19.38;100.00;100487.91;4941885;28;20157;-89
2021/07/14 01:53:03;;;;;;;80.32;48.55;;;;;;;19.36;100.00;100488.16;4940944;28;20779;-88
2021/07/14 01:55:31;;;;;;;77.32;48.88;;;;;;;19.38;100.00;100493.34;4942854;28;20055;-88
2021/07/14 01:57:59;;;;;;;78.55;47.08;;;;;;;19.38;100.00;100491.47;4943955;28;20052;-88
2021/07/14 02:00:27;;;;;;;80.18;50.17;;;;;;;19.39;100.00;100492.28;4942404;28;20058;-89
2021/07/14 02:05:20;;;;;;;76.72;47.97;;;;;;;19.38;100.00;100491.47;4942176;28;20062;-89
2021/07/14 02:07:46;;;;;;;77.95;47.10;;;;;;;19.39;100.00;100497.72;4942395;28;20182;-90
2021/07/14 02:10:12;;;;;;;83.53;50.05;;;;;;;19.37;100.00;100489.81;4943218;28;20035;-89
2021/07/14 02:12:40;;;;;;;82.47;49.13;;;;;;;19.40;100.00;100496.69;4941025;28;20051;-88
2021/07/14 02:15:09;;;;;;;80.20;48.47;;;;;;;19.38;100.00;100496.91;4940843;28;20083;-89
2021/07/14 02:18:09;;;;;;;83.90;49.60;;;;;;;19.37;100.00;100489.81;4941333;28;20047;-90
2021/07/14 02:20:35;;;;;;;75.35;47.13;;;;;;;19.37;100.00;100488.97;4938352;28;20541;-89
2021/07/14 02:23:04;;;;;;;78.80;46.15;;;;;;;19.36;100.00;100487.31;4941809;28;20524;-89
2021/07/14 02:25:30;;;;;;;75.25;49.35;;;;;;;19.37;100.00;100478.09;4941833;28;20139;-87
2021/07/14 02:27:56;;;;;;;77.05;47.60;;;;;;;19.37;100.00;100483.53;4942365;28;20122;-88
2021/07/14 02:30:22;;;;;;;72.95;43.97;;;;;;;19.36;100.00;100482.72;4942242;28;20047;-87
2021/07/14 02:32:55;;;;;;;77.45;48.40;;;;;;;19.36;100.00;100474.56;4941437;28;20058;-87
2021/07/14 02:35:22;;;;;;;78.10;45.55;;;;;;;19.36;100.00;100474.56;4943142;28;20197;-88
2021/07/14 02:37:58;;;;;;;78.70;48.03;;;;;;;19.38;100.00;100475.13;4939973;28;20773;-88
2021/07/14 02:40:37;;;;;;;79.72;45.88;;;;;;;19.36;100.00;100466.41;4942041;28;20055;-88
2021/07/14 02:43:05;;;;;;;74.30;45.15;;;;;;;19.33;100.00;100461.41;4944482;28;20818;-88
2021/07/14 02:45:33;;;;;;;78.47;47.42;;;;;;;19.31;100.00;100463.53;4940245;28;20059;-90
2021/07/14 02:48:00;;;;;;;77.53;46.28;;;;;;;19.31;100.00;100457.25;4942472;28;20492;-89
2021/07/14 02:50:28;;;;;;;77.10;45.42;;;;;;;19.32;100.00;100453.47;4941285;28;20126;-87
2021/07/14 02:53:00;;;;;;;74.75;46.17;;;;;;;19.30;100.00;100459.13;4938682;28;20054;-88
2021/07/14 02:55:30;;;;;;;78.47;46.17;;;;;;;19.31;100.00;100457.25;4943099;28;20478;-87
2021/07/14 02:57:59;;;;;;;79.25;47.13;;;;;;;19.31;100.00;100457.25;4942379;28;20581;-89
2021/07/14 03:00:26;;;;;;;78.88;47.15;;;;;;;19.33;100.00;100457.84;4941586;28;20048;-89
2021/07/14 03:02:54;;;;;;;81.35;46.28;;;;;;;19.30;100.00;100461.03;4940932;28;20051;-88
2021/07/14 03:05:20;;;;;;;75.07;45.05;;;;;;;19.33;100.00;100463.28;4941960;28;20067;-89
2021/07/14 03:07:47;;;;;;;72.55;44.63;;;;;;;19.34;100.00;100464.97;4941479;28;20067;-89
2021/07/14 03:10:21;;;;;;;80.05;44.85;;;;;;;19.34;100.00;100464.97;4941952;28;20134;-88
2021/07/14 03:12:50;;;;;;;76.07;46.95;;;;;;;19.30;100.00;100458.31;4938938;28;20086;-89
2021/07/14 03:15:17;;;;;;;72.53;45.20;;;;;;;19.29;100.00;100454.75;4941419;28;20794;-88
2021/07/14 03:17:43;;;;;;;73.88;44.67;;;;;;;19.31;100.00;100452.66;4942480;28;20055;-88
2021/07/14 03:20:11;;;;;;;71.43;42.40;;;;;;;19.32;100.00;100458.91;4942174;28;20483;-89
2021/07/14 03:22:41;;;;;;;73.45;43.85;;;;;;;19.30;100.00;100456.41;4937673;28;20051;-87
2021/07/14 03:25:07;;;;;;;72.55;43.45;;;;;;;19.29;100.00;100462.09;4942942;28;20043;-88
2021/07/14 03:27:33;;;;;;;72.82;43.97;;;;;;;19.32;100.00;100461.63;4940267;28;20051;-89
2021/07/14 03:29:59;;;;;;;76.15;45.35;;;;;;;19.28;100.00;100461.28;4941776;28;20055;-88
2021/07/14 03:32:25;;;;;;;72.75;44.90;;;;;;;19.29;100.00;100465.63;4941609;28;20048;-89
2021/07/14 03:34:52;;;;;;;74.18;44.92;;;;;;;19.30;100.00;100450.13;4938432;28;20050;-88
2021/07/14 03:37:18;;;;;;;75.47;45.50;;;;;;;19.30;100.00;100459.13;4941986;28;20047;-87
2021/07/14 03:39:45;;;;;;;75.72;45.55;;;;;;;19.31;100.00;100459.97;4941730;28;20082;-88
2021/07/14 03:42:14;;;;;;;77.00;46.00;;;;;;;19.29;100.00;100460.19;4941262;28;20050;-88
2021/07/14 03:44:41;;;;;;;73.35;44.42;;;;;;;19.29;100.00;100462.09;4942068;28;20126;-89
2021/07/14 03:47:08;;;;;;;73.68;42.75;;;;;;;19.27;100.00;100458.75;4940126;28;20051;-88
2021/07/14 03:49:34;;;;;;;79.38;44.50;;;;;;;19.26;100.00;100459.84;4940210;28;20075;-89
2021/07/14 03:52:01;;;;;;;75.20;43.40;;;;;;;19.25;100.00;100450.00;4942904;28;20079;-89
2021/07/14 03:54:30;;;;;;;76.97;45.15;;;;;;;19.25;100.00;100441.84;4940103;28;20078;-89
2021/07/14 03:56:57;;;;;;;71.55;43.95;;;;;;;19.24;100.00;100442.91;4941709;28;20470;-88
2021/07/14 03:59:23;;;;;;;68.82;40.78;;;;;;;19.22;100.00;100445.88;4940330;28;20130;-89
2021/07/14 04:01:49;;;;;;;73.82;42.97;;;;;;;19.23;100.00;100444.81;4941546;28;20517;-88
2021/07/14 04:04:15;;;;;;;74.85;41.80;;;;;;;19.22;100.00;100458.63;4942011;28;20106;-88
2021/07/14 04:06:45;;;;;;;75.80;41.25;;;;;;;19.20;100.00;100452.59;4940461;28;20047;-89
2021/07/14 04:09:20;;;;;;;75.40;43.83;;;;;;;19.15;100.00;100456.81;4951017;28;20067;-88
2021/07/14 04:11:46;;;;;;;83.30;43.50;;;;;;;19.15;100.00;100459.53;4938648;28;20502;-88
2021/07/14 04:14:12;;;;;;;77.07;39.45;;;;;;;19.15;100.00;100459.53;4943012;28;20051;-89
2021/07/14 04:16:37;;;;;;;75.60;43.25;;;;;;;19.14;100.00;100460.59;4944194;28;20049;-89
2021/07/14 04:19:03;;;;;;;77.78;43.00;;;;;;;19.15;100.00;100459.53;4945781;28;20074;-88
2021/07/14 04:21:29;;;;;;;76.43;40.70;;;;;;;19.13;100.00;100461.69;4939507;28;20043;-88
2021/07/14 04:23:55;;;;;;;80.90;42.95;;;;;;;19.10;100.00;100456.69;4944110;28;20186;-88
2021/07/14 04:26:23;;;;;;;76.13;41.95;;;;;;;19.11;100.00;100461.06;4945501;28;20094;-89
2021/07/14 04:28:48;;;;;;;76.47;42.47;;;;;;;19.10;100.00;100458.56;4943762;28;20395;-89
2021/07/14 04:31:14;;;;;;;85.78;41.28;;;;;;;19.10;100.00;100455.84;4943091;28;20055;-89
2021/07/14 04:33:41;;;;;;;83.63;44.55;;;;;;;19.06;100.00;100454.66;4942417;28;20134;-90
2021/07/14 04:36:08;;;;;;;76.25;41.70;;;;;;;19.03;100.00;100461.38;4936879;28;20055;-89
2021/07/14 04:38:34;;;;;;;80.18;42.28;;;;;;;19.00;100.00;100459.09;4940855;28;20510;-90
2021/07/14 04:40:59;;;;;;;85.63;44.65;;;;;;;19.01;100.00;100462.66;4944863;28;20066;-90
2021/07/14 04:43:24;;;;;;;83.90;42.65;;;;;;;19.01;100.00;100458.03;4940925;28;20056;-88
2021/07/14 04:45:50;;;;;;;88.03;42.78;;;;;;;18.97;100.00;100453.31;4943062;28;20071;-87
2021/07/14 04:48:15;;;;;;;91.85;46.22;;;;;;;18.93;100.00;100448.31;4944417;28;20059;-91
2021/07/14 04:50:41;;;;;;;89.50;45.10;;;;;;;18.92;100.00;100453.97;4944055;28;20054;-90
2021/07/14 04:53:06;;;;;;;87.05;45.13;;;;;;;18.86;100.00;100449.44;4943808;29;20059;-90
2021/07/14 04:55:32;;;;;;;96.07;45.50;;;;;;;18.85;100.00;100450.50;4943356;28;20058;-87
2021/07/14 04:57:57;;;;;;;107.55;49.13;;;;;;;18.85;100.00;100455.97;4944852;28;20051;-87
2021/07/14 05:00:22;;;;;;;108.70;50.25;;;;;;;18.81;100.00;100450.13;4942779;28;20061;-89
2021/07/14 05:02:48;;;;;;;102.35;47.42;;;;;;;18.82;100.00;100456.41;4943339;28;20043;-88
2021/07/14 05:05:14;;;;;;;104.50;46.83;;;;;;;18.80;100.00;100450.34;4945437;28;20159;-89
2021/07/14 05:07:40;;;;;;;114.38;49.17;;;;;;;18.77;100.00;100456.25;4943553;28;20055;-89
2021/07/14 05:10:07;;;;;;;106.72;47.67;;;;;;;18.76;100.00;100444.56;4945039;28;20051;-90
2021/07/14 05:12:33;;;;;;;108.13;48.78;;;;;;;18.74;100.00;100459.41;4942648;28;20497;-89
2021/07/14 05:14:58;;;;;;;106.57;51.70;;;;;;;18.72;100.00;100448.72;4943620;28;20050;-90
2021/07/14 05:17:24;;;;;;;102.38;47.25;;;;;;;18.68;100.00;100451.06;4945242;28;20066;-89
2021/07/14 05:19:49;;;;;;;110.07;47.78;;;;;;;18.71;100.00;100447.09;4944497;28;20051;-89
2021/07/14 05:22:14;;;;;;;104.57;47.60;;;;;;;18.71;100.00;100449.81;4947140;28;20052;-89
2021/07/14 05:24:41;;;;;;;101.43;46.30;;;;;;;18.70;100.00;100446.25;4945379;28;20051;-89
2021/07/14 05:27:06;;;;;;;93.97;46.97;;;;;;;18.70;100.00;100450.84;4948904;28;20474;-90
2021/07/14 05:29:32;;;;;;;98.15;46.58;;;;;;;18.71;100.00;100447.91;4946914;28;20126;-88
2021/07/14 05:31:57;;;;;;;94.65;47.25;;;;;;;18.73;100.00;100455.84;4946347;29;20081;-89
2021/07/14 05:34:23;;;;;;;97.13;48.22;;;;;;;18.71;100.00;100450.63;4944105;28;20109;-90
2021/07/14 05:36:48;;;;;;;94.30;46.15;;;;;;;18.71;100.00;100452.50;4943663;28;20053;-90
2021/07/14 05:39:14;;;;;;;93.75;50.65;;;;;;;18.74;100.00;100454.81;4937643;29;20055;-91
2021/07/14 05:41:41;;;;;;;93.80;47.05;;;;;;;18.72;100.00;100455.00;4941485;28;20063;-91
2021/07/14 05:44:07;;;;;;;94.75;47.55;;;;;;;18.76;100.00;100450.00;4940397;28;20039;-90
2021/07/14 05:46:33;;;;;;;90.97;45.10;;;;;;;18.72;100.00;100457.72;4942023;28;20051;-92
2021/07/14 05:49:02;;;;;;;88.25;44.58;;;;;;;18.75;100.00;100448.31;4941074;29;20051;-90
2021/07/14 05:51:28;;;;;;;;;;;;;;;18.75;100.00;100458.34;4944674;28;20047;-90
2021/07/14 05:53:53;;;;;;;91.35;46.67;;;;;;;18.73;100.00;100450.41;4942167;28;19925;-90
2021/07/14 05:56:18;;;;;;;92.82;47.50;;;;;;;18.72;100.00;100454.16;4944410;28;20454;-91
2021/07/14 05:58:44;;;;;;;83.95;45.35;;;;;;;18.74;100.00;100462.16;4942674;28;20047;-90
2021/07/14 06:01:09;;;;;;;91.82;46.78;;;;;;;18.77;100.00;100461.69;4942809;28;20051;-92
2021/07/14 06:03:35;;;;;;;94.00;47.67;;;;;;;18.80;100.00;100466.66;4941035;28;20055;-93
2021/07/14 06:06:00;;;;;;;94.03;47.60;;;;;;;18.81;100.00;100469.16;4945377;28;20055;-91
2021/07/14 06:08:26;;;;;;;95.57;49.53;;;;;;;18.81;100.00;100473.75;4939812;28;20050;-94
2021/07/14 06:10:52;;;;;;;90.75;45.65;;;;;;;18.79;100.00;100470.44;4940847;28;20050;-91
2021/07/14 06:13:17;;;;;;;94.35;48.20;;;;;;;18.80;100.00;100472.09;4937054;28;20380;-93
2021/07/14 06:15:43;;;;;;;94.20;47.90;;;;;;;18.78;100.00;100474.22;4942617;28;20046;-88
2021/07/14 06:18:08;;;;;;;87.07;48.22;;;;;;;18.78;100.00;100474.22;4938557;28;20498;-90
2021/07/14 06:20:34;;;;;;;100.32;50.10;;;;;;;18.79;100.00;100476.72;4941668;28;20055;-90
2021/07/14 06:22:59;;;;;;;82.53;46.33;;;;;;;18.80;100.00;100477.53;4942499;28;20047;-89
2021/07/14 06:25:25;;;;;;;93.38;50.13;;;;;;;18.76;100.00;100487.19;4941820;28;20059;-90
2021/07/14 06:27:50;;;;;;;90.05;49.83;;;;;;;18.77;100.00;100489.69;4942749;28;20178;-92
2021/07/14 06:30:17;;;;;;;90.20;47.10;;;;;;;18.77;100.00;100488.88;4941201;28;20110;-91
2021/07/14 06:32:43;;;;;;;88.93;50.00;;;;;;;18.75;100.00;100488.25;4942300;28;20492;-92
2021/07/14 06:35:11;;;;;;;88.55;46.88;;;;;;;18.75;100.00;100488.25;4941397;28;20110;-89
2021/07/14 06:37:38;;;;;;;88.90;47.10;;;;;;;18.75;100.00;100485.53;4942251;28;20078;-92
2021/07/14 06:40:06;;;;;;;87.78;44.70;;;;;;;18.74;100.00;100483.88;4940377;28;20058;-92
2021/07/14 06:42:32;;;;;;;87.50;47.53;;;;;;;18.77;100.00;100484.25;4941500;28;20556;-91
2021/07/14 06:44:58;;;;;;;83.60;47.30;;;;;;;18.77;100.00;100488.88;4941702;28;20055;-89
2021/07/14 06:47:23;;;;;;;85.90;44.90;;;;;;;18.76;100.00;100487.19;4941273;28;20308;-91
2021/07/14 06:49:48;;;;;;;82.20;46.17;;;;;;;18.77;100.00;100484.25;4945811;28;20055;-92
2021/07/14 06:52:14;;;;;;;86.03;45.75;;;;;;;18.75;100.00;100480.09;4940760;28;20082;-90
2021/07/14 06:54:40;;;;;;;90.95;46.17;;;;;;;18.74;100.00;100475.72;4939771;28;20074;-90
2021/07/14 06:57:06;;;;;;;86.82;46.15;;;;;;;18.72;100.00;100478.63;4940714;28;20035;-91
2021/07/14 06:59:32;;;;;;;89.57;48.53;;;;;;;18.72;100.00;100474.00;4945721;28;20051;-88
2021/07/14 07:02:01;;;;;;;88.97;46.72;;;;;;;18.75;100.00;100474.66;4937777;29;20074;-93
2021/07/14 07:04:30;;;;;;;87.70;46.05;;;;;;;18.76;100.00;100479.03;4943036;28;20047;-91
2021/07/14 07:06:56;;;;;;;;;;;;;;;18.74;100.00;100481.16;4943698;28;20078;-89
2021/07/14 07:09:21;;;;;;;87.90;45.72;;;;;;;18.65;100.00;100481.44;4941532;28;20317;-92
2021/07/14 07:11:47;;;;;;;89.30;49.50;;;;;;;18.64;100.00;100484.34;4941433;28;20460;-93
2021/07/14 07:14:13;;;;;;;95.75;50.78;;;;;;;18.63;100.00;100483.53;4943985;28;20051;-91
2021/07/14 07:16:38;;;;;;;90.22;46.20;;;;;;;18.63;100.00;100483.53;4941233;28;20047;-91
2021/07/14 07:19:05;;;;;;;98.70;49.55;;;;;;;18.66;100.00;100480.34;4943423;28;20062;-91
2021/07/14 07:21:31;;;;;;;95.28;51.80;;;;;;;18.67;100.00;100478.47;4943133;28;20051;-91
2021/07/14 07:23:57;;;;;;;104.20;48.70;;;;;;;18.65;100.00;100483.31;4939845;28;20076;-92
2021/07/14 07:26:22;;;;;;;90.28;46.13;;;;;;;18.66;100.00;100472.22;4943629;28;20864;-92
2021/07/14 07:28:51;;;;;;;94.90;45.60;;;;;;;18.65;100.00;100470.56;4944947;28;20054;-92
2021/07/14 07:31:16;;;;;;;97.82;50.15;;;;;;;18.67;100.00;100471.16;4942861;28;20081;-91
2021/07/14 07:33:41;;;;;;;100.90;49.42;;;;;;;18.63;100.00;100472.66;4935046;28;20044;-91
2021/07/14 07:36:07;;;;;;;97.00;47.60;;;;;;;18.67;100.00;100468.44;4939227;28;20490;-90
2021/07/14 07:38:36;;;;;;;101.50;50.83;;;;;;;18.70;100.00;100472.56;4936976;28;20058;-90
2021/07/14 07:41:03;;;;;;;97.38;49.72;;;;;;;18.67;100.00;100462.16;4940401;28;20051;-91
2021/07/14 07:43:29;;;;;;;95.53;47.55;;;;;;;18.61;100.00;100457.63;4942008;28;20105;-93
2021/07/14 07:45:56;;;;;;;100.10;47.95;;;;;;;18.63;100.00;100471.84;4942649;28;20130;-90
2021/07/14 07:48:22;;;;;;;107.05;50.10;;;;;;;18.63;100.00;100466.41;4939900;28;20062;-92
2021/07/14 07:50:48;;;;;;;96.00;48.60;;;;;;;18.62;100.00;100470.19;4946213;28;20177;-90
2021/07/14 07:53:17;;;;;;;106.80;49.58;;;;;;;18.59;100.00;100460.59;4962613;28;20060;-91
2021/07/14 07:55:43;;;;;;;105.50;49.28;;;;;;;18.62;100.00;100459.31;4945466;28;20391;-92
2021/07/14 07:58:09;;;;;;;91.60;50.97;;;;;;;18.60;100.00;100458.69;4947915;28;20062;-90
2021/07/14 08:00:35;;;;;;;99.25;48.75;;;;;;;18.62;100.00;100459.31;4944705;28;20055;-92
2021/07/14 08:03:00;;;;;;;90.03;47.80;;;;;;;18.68;100.00;100472.81;4946009;28;20055;-92
2021/07/14 08:05:26;;;;;;;93.80;47.75;;;;;;;18.66;100.00;100461.34;4947032;28;20063;-93
2021/07/14 08:07:53;;;;;;;96.60;49.55;;;;;;;18.70;100.00;100462.56;4945029;28;20062;-92
2021/07/14 08:10:18;;;;;;;90.38;47.35;;;;;;;18.67;100.00;100470.31;4946594;28;20053;-93
2021/07/14 08:12:44;;;;;;;89.70;46.25;;;;;;;18.71;100.00;100468.81;4940863;28;20134;-90
2021/07/14 08:15:10;;;;;;;90.00;47.45;;;;;;;18.73;100.00;100464.00;4945707;28;20082;-93
2021/07/14 08:17:36;;;;;;;89.30;46.20;;;;;;;18.77;100.00;100467.13;4945412;28;20051;-91
2021/07/14 08:20:04;;;;;;;82.55;43.92;;;;;;;18.73;100.00;100466.72;4945623;28;20494;-91
2021/07/14 08:22:30;;;;;;;77.97;44.35;;;;;;;18.74;100.00;100459.41;4942893;28;20146;-91
2021/07/14 08:24:55;;;;;;;80.60;45.15;;;;;;;18.74;100.00;100464.84;4949007;28;20320;-91
2021/07/14 08:27:24;;;;;;;73.43;41.97;;;;;;;18.78;100.00;100455.19;4946518;28;20087;-90
2021/07/14 08:29:49;;;;;;;79.45;44.40;;;;;;;18.79;100.00;100460.41;4944391;28;20574;-93
2021/07/14 08:32:15;;;;;;;81.07;42.80;;;;;;;18.81;100.00;100452.00;4943506;28;20054;-88
2021/07/14 08:34:40;;;;;;;81.80;42.80;;;;;;;18.78;100.00;100463.34;4944655;28;20174;-92
2021/07/14 08:37:06;;;;;;;82.13;43.50;;;;;;;18.81;100.00;100462.88;4944816;28;20063;-92
2021/07/14 08:39:32;;;;;;;76.20;41.08;;;;;;;18.82;100.00;100464.56;4945688;28;20391;-92
2021/07/14 08:42:01;;;;;;;78.55;43.88;;;;;;;18.84;100.00;100457.00;4944569;28;20059;-90
2021/07/14 08:44:27;;;;;;;85.95;53.83;;;;;;;18.86;100.00;100469.31;4942095;29;20059;-90
2021/07/14 08:46:54;;;;;;;81.82;46.83;;;;;;;18.86;100.00;100473.91;4945569;28;20043;-91
2021/07/14 08:49:19;;;;;;;83.38;45.58;;;;;;;18.84;100.00;100465.16;4944654;28;20498;-90
2021/07/14 08:51:46;;;;;;;86.88;46.50;;;;;;;18.89;100.00;100457.16;4944740;28;20047;-91
2021/07/14 08:54:11;;;;;;;77.28;46.33;;;;;;;18.85;100.00;100461.38;4944896;28;20573;-91
2021/07/14 08:56:37;;;;;;;79.90;45.97;;;;;;;18.92;100.00;100462.13;4942700;28;20051;-91
2021/07/14 08:59:02;;;;;;;83.93;47.15;;;;;;;18.93;100.00;100451.03;4943116;28;20408;-92
2021/07/14 09:01:29;;;;;;;81.82;45.53;;;;;;;18.90;100.00;100453.34;4943603;28;20051;-94
2021/07/14 09:03:55;;;;;;;87.78;47.78;;;;;;;18.93;100.00;100456.47;4944070;28;20406;-91
2021/07/14 09:06:20;;;;;;;82.05;47.10;;;;;;;18.93;100.00;100451.03;4945095;28;20059;-92
2021/07/14 09:08:46;;;;;;;80.45;46.00;;;;;;;18.97;100.00;100462.28;4941724;28;20054;-91
2021/07/14 09:11:11;;;;;;;78.53;46.50;;;;;;;18.98;100.00;100460.38;4945249;28;20624;-91
2021/07/14 09:13:40;;;;;;;82.93;46.17;;;;;;;18.98;100.00;100460.38;4943588;28;20051;-92
2021/07/14 09:16:06;;;;;;;83.13;45.25;;;;;;;19.00;100.00;100453.66;4942057;28;20043;-91
2021/07/14 09:18:31;;;;;;;83.60;45.05;;;;;;;19.04;100.00;100449.44;4926929;28;20145;-93
2021/07/14 09:20:58;;;;;;;75.88;43.78;;;;;;;19.14;100.00;100454.34;4940825;28;20055;-92
2021/07/14 09:23:29;;;;;;;82.00;46.35;;;;;;;19.16;100.00;100444.91;4943352;28;20277;-91
2021/07/14 09:25:57;;;;;;;84.13;43.60;;;;;;;19.17;100.00;100451.16;4943050;28;20058;-92
2021/07/14 09:28:44;;;;;;;80.85;44.45;;;;;;;19.22;100.00;100448.59;4942973;28;20055;-91
2021/07/14 09:31:12;;;;;;;80.13;42.75;;;;;;;19.25;100.00;100450.00;4940957;28;20485;-92
2021/07/14 09:33:42;;;;;;;76.93;43.38;;;;;;;19.24;100.00;100454.59;4943312;28;20046;-91
2021/07/14 09:36:08;;;;;;;80.03;43.72;;;;;;;19.30;100.00;100455.59;4944888;28;20047;-92
2021/07/14 09:38:36;;;;;;;76.15;45.17;;;;;;;19.33;100.00;100455.13;4943654;28;20059;-91
2021/07/14 09:41:04;;;;;;;79.43;44.72;;;;;;;19.40;100.00;100453.16;4941132;28;20051;-90
2021/07/14 09:43:31;;;;;;;78.57;43.93;;;;;;;19.39;100.00;100446.03;4947037;28;20260;-91
2021/07/14 09:46:02;;;;;;;74.50;42.95;;;;;;;19.41;100.00;100446.63;4943747;28;20055;-92
2021/07/14 09:48:30;;;;;;;76.47;45.95;;;;;;;19.44;100.00;100450.78;4945369;28;20047;-90
2021/07/14 09:50:59;;;;;;;70.18;43.85;;;;;;;19.40;100.00;100450.44;4943733;28;20134;-89
2021/07/14 09:53:30;;;;;;;73.45;44.20;;;;;;;19.41;100.00;100454.81;4948020;28;20282;-91
2021/07/14 09:56:09;;;;;;;75.18;44.17;;;;;;;19.49;100.00;100462.66;4940651;28;20436;-91
2021/07/14 09:58:36;;;;;;;79.43;47.05;;;;;;;19.50;100.00;100461.56;4944630;28;20153;-88
2021/07/14 10:01:04;;;;;;;76.47;44.60;;;;;;;19.51;100.00;100459.72;4951050;28;20050;-90
2021/07/14 10:03:31;;;;;;;74.13;45.38;;;;;;;19.53;100.00;100449.41;4954866;28;20050;-89
2021/07/14 10:06:04;;;;;;;75.40;45.05;;;;;;;19.58;100.00;100453.09;4955323;28;20059;-92
2021/07/14 10:08:30;;;;;;;72.30;45.17;;;;;;;19.64;100.00;100450.50;4955823;28;20083;-88
2021/07/14 10:11:26;;;;;;;69.57;45.38;;;;;;;19.66;100.00;100446.53;4960327;28;20102;-88
2021/07/14 10:14:02;;;;;;;66.05;45.35;;;;;;;19.70;100.00;100441.44;4931585;29;20059;-89
2021/07/14 10:16:30;;;;;;;66.10;44.28;;;;;;;19.75;100.00;100447.84;4950688;28;20102;-87
2021/07/14 10:19:10;;;;;;;67.53;43.90;;;;;;;19.80;100.00;100439.81;4961471;28;20035;-89
2021/07/14 10:21:41;;;;;;;67.72;43.05;;;;;;;19.88;100.00;100444.09;4958716;28;20802;-88
2021/07/14 10:24:10;;;;;;;67.53;43.92;;;;;;;19.95;100.00;100446.72;4956591;28;20040;-90
2021/07/14 10:26:38;;;;;;;62.78;42.88;;;;;;;20.02;100.00;100448.28;4955249;28;20108;-89
2021/07/14 10:29:04;;;;;;;64.25;40.13;;;;;;;20.11;100.00;100453.34;4945658;28;20074;-89
2021/07/14 10:31:31;;;;;;;63.00;42.08;;;;;;;20.19;100.00;100459.28;4944292;28;20047;-89
2021/07/14 10:33:57;;;;;;;69.90;43.13;;;;;;;20.22;100.00;100468.88;4942522;28;20055;-88
2021/07/14 10:36:29;;;;;;;66.55;43.03;;;;;;;20.23;100.00;100463.19;4941516;28;20043;-90
2021/07/14 10:39:00;;;;;;;60.20;41.90;;;;;;;20.28;100.00;100476.09;4943213;28;20053;-89
2021/07/14 10:41:30;;;;;;;61.22;41.33;;;;;;;20.38;100.00;100468.19;4944168;28;20106;-91
2021/07/14 10:43:57;;;;;;;61.20;42.83;;;;;;;20.41;100.00;100467.69;4942357;28;20055;-90
2021/07/14 10:46:25;;;;;;;62.70;39.83;;;;;;;20.41;100.00;100470.44;4944954;28;20054;-91
2021/07/14 10:48:53;;;;;;;59.80;42.30;;;;;;;20.52;100.00;100474.22;4943397;28;20054;-92
2021/07/14 10:51:20;;;;;;;55.80;40.55;;;;;;;20.62;100.00;100463.56;4942261;28;20094;-90
2021/07/14 10:53:49;;;;;;;61.03;41.70;;;;;;;20.77;100.00;100457.63;4939731;28;20448;-93
2021/07/14 10:56:16;;;;;;;52.10;38.28;;;;;;;20.80;100.00;100456.31;4941668;28;20055;-91
2021/07/14 10:58:43;;;;;;;58.72;41.20;;;;;;;20.90;100.00;100460.09;4940177;28;20079;-91
2021/07/14 11:01:09;;;;;;;53.58;38.15;;;;;;;21.05;100.00;100450.56;4939230;28;20065;-88
2021/07/14 11:03:38;;;;;;;49.88;35.45;;;;;;;21.17;100.00;100452.19;4936457;28;20050;-89
2021/07/14 11:06:04;;;;;;;;;;;;;;;21.25;100.00;100447.41;4942089;28;21140;-90
2021/07/14 11:08:47;;;;;;;50.08;38.45;;;;;;;21.27;100.00;100451.56;4942765;28;19919;-90
2021/07/14 11:11:23;;;;;;;51.45;35.95;;;;;;;21.30;100.00;100440.16;4952355;28;20577;-89
2021/07/14 11:14:05;;;;;;;47.40;35.47;;;;;;;21.37;100.00;100453.69;4941282;28;20499;-90
2021/07/14 11:16:36;;;;;;;51.78;37.60;;;;;;;21.33;100.00;100441.56;4943549;28;20047;-92